Time;durP1;ratioP1;P1;durP2;ratioP2;P2;SDS_P1;SDS_P2;PMS_P1;PMS_P2;Temp;Humidity;BMP_temperature;BMP_pressure;BME280_temperature;BME280_humidity;BME280_pressure;Samples;Min_cycle;Max_cycle;Signal;HPM_P1;HPM_P2
2022/01/30 00:01:23;;;;;;;12.93;3.50;;;;;;;7.07;87.73;100870.25;5057970;28;20032;-75
2022/01/30 00:03:48;;;;;;;11.38;3.00;;;;;;;7.08;87.19;100868.44;5057352;28;20033;-75
2022/01/30 00:06:14;;;;;;;17.88;3.85;;;;;;;7.05;87.39;100880.13;5063923;28;20478;-75
2022/01/30 00:08:39;;;;;;;16.73;3.22;;;;;;;7.05;87.24;100888.09;5057090;28;20102;-75
2022/01/30 00:11:13;;;;;;;16.70;3.22;;;;;;;6.99;86.53;100892.94;5057367;28;20053;-75
2022/01/30 00:13:38;;;;;;;14.35;3.20;;;;;;;6.95;86.68;100889.59;5059199;28;20039;-74
2022/01/30 00:16:07;;;;;;;17.02;3.55;;;;;;;6.92;86.24;100892.44;5065444;28;20142;-75
2022/01/30 00:18:47;;;;;;;12.80;3.17;;;;;;;6.91;86.36;100890.75;5057024;28;20069;-75
2022/01/30 00:21:34;;;;;;;15.25;3.08;;;;;;;6.90;86.73;100891.69;5058748;28;20082;-76
2022/01/30 00:24:14;;;;;;;21.70;3.13;;;;;;;6.85;85.90;100902.59;5060373;28;20039;-75
2022/01/30 00:26:41;;;;;;;14.30;3.15;;;;;;;6.86;85.90;100896.34;5065639;28;20025;-75
2022/01/30 00:29:07;;;;;;;13.82;3.00;;;;;;;6.84;86.10;100905.34;5055732;28;20114;-75
2022/01/30 00:31:34;;;;;;;20.98;3.90;;;;;;;6.79;85.78;100908.28;5055937;28;20051;-75
2022/01/30 00:34:01;;;;;;;11.82;3.05;;;;;;;6.81;85.47;100914.34;5057782;28;20028;-75
2022/01/30 00:36:29;;;;;;;17.52;3.67;;;;;;;6.81;85.95;100918.81;5064951;28;20039;-75
2022/01/30 00:38:55;;;;;;;16.57;3.07;;;;;;;6.80;85.73;100909.13;5056284;28;20061;-75
2022/01/30 00:41:20;;;;;;;14.55;3.13;;;;;;;6.80;85.95;100925.94;5062930;28;20027;-75
2022/01/30 00:43:45;;;;;;;15.50;3.72;;;;;;;6.80;85.60;100925.94;5064359;28;20028;-76
2022/01/30 00:46:12;;;;;;;15.82;3.55;;;;;;;6.74;85.68;100925.44;5056252;28;20056;-75
2022/01/30 00:48:37;;;;;;;16.40;3.60;;;;;;;6.73;85.75;100926.38;5064144;28;20044;-75
2022/01/30 00:51:03;;;;;;;14.32;2.90;;;;;;;6.71;85.93;100923.81;5064174;28;20088;-75
2022/01/30 00:53:28;;;;;;;18.88;3.80;;;;;;;6.71;85.99;100921.16;5055103;28;20091;-75
2022/01/30 00:55:54;;;;;;;13.00;3.38;;;;;;;6.69;86.21;100920.41;5064388;28;20028;-75
2022/01/30 00:58:19;;;;;;;17.60;4.13;;;;;;;6.67;86.19;100914.31;5057500;28;20024;-75
2022/01/30 01:00:44;;;;;;;13.82;3.17;;;;;;;6.69;86.55;100911.56;5070854;28;20040;-75
2022/01/30 01:03:10;;;;;;;16.08;4.78;;;;;;;6.70;86.53;100924.78;5056763;28;20032;-75
2022/01/30 01:05:37;;;;;;;13.18;3.53;;;;;;;6.68;86.30;100926.66;5056734;28;20034;-75
2022/01/30 01:08:12;;;;;;;16.88;3.97;;;;;;;6.64;86.78;100933.09;5063052;28;20039;-76
2022/01/30 01:10:48;;;;;;;16.55;3.30;;;;;;;6.62;85.99;100938.50;5049947;28;20052;-75
2022/01/30 01:24:04;;;;;;;14.13;3.53;;;;;;;6.63;86.13;100934.03;5073882;28;20035;-75
2022/01/30 01:26:30;;;;;;;13.45;3.55;;;;;;;6.60;86.62;100928.88;5054531;28;20032;-76
2022/01/30 01:28:55;;;;;;;16.73;3.80;;;;;;;6.56;86.11;100933.50;5072630;28;20042;-75
2022/01/30 01:31:22;;;;;;;16.98;3.83;;;;;;;6.53;86.31;100938.16;5064099;28;20044;-75
2022/01/30 01:36:31;;;;;;;14.82;4.03;;;;;;;6.55;85.88;100937.13;5075869;28;20044;-75
2022/01/30 01:38:56;;;;;;;11.88;3.72;;;;;;;6.60;86.61;100943.03;5055755;28;20036;-75
2022/01/30 01:41:24;;;;;;;12.88;3.85;;;;;;;6.63;86.64;100945.53;5063918;28;20040;-75
2022/01/30 01:43:50;;;;;;;12.13;3.50;;;;;;;6.56;86.35;100949.47;5054813;28;20116;-75
2022/01/30 01:46:24;;;;;;;17.88;3.38;;;;;;;6.59;86.01;100953.75;5075401;28;20067;-75
2022/01/30 01:48:52;;;;;;;12.90;3.10;;;;;;;6.55;85.88;100949.53;5060093;28;20055;-75
2022/01/30 01:51:21;;;;;;;11.57;2.97;;;;;;;6.52;85.91;100958.56;5060881;28;20367;-76
2022/01/30 01:53:49;;;;;;;17.75;3.88;;;;;;;6.51;85.90;100951.53;5059490;28;20058;-75
2022/01/30 01:56:18;;;;;;;13.32;3.28;;;;;;;6.54;86.13;100956.66;5076246;28;20560;-75
2022/01/30 01:58:44;;;;;;;12.57;3.20;;;;;;;6.53;86.11;100957.59;5060133;28;20195;-75
2022/01/30 02:01:10;;;;;;;13.35;3.33;;;;;;;6.47;86.03;100960.63;5059835;28;20036;-75
2022/01/30 02:03:40;;;;;;;15.40;3.30;;;;;;;6.47;86.41;100954.44;5061429;28;20042;-75
2022/01/30 02:06:09;;;;;;;13.88;2.60;;;;;;;6.48;85.61;100967.63;5066287;28;20032;-75
2022/01/30 02:08:38;;;;;;;14.73;3.03;;;;;;;6.46;86.23;100963.34;5060160;28;20044;-75
2022/01/30 02:11:08;;;;;;;12.43;2.83;;;;;;;6.47;85.97;100965.94;5060371;28;20040;-75
2022/01/30 02:24:36;;;;;;;17.85;3.53;;;;;;;6.46;85.71;100955.38;5077980;28;20074;-75
2022/01/30 02:27:02;;;;;;;14.77;3.35;;;;;;;6.42;85.54;100954.72;5075033;28;20051;-75
2022/01/30 02:29:29;;;;;;;15.75;3.33;;;;;;;6.46;85.67;100950.94;5059382;28;20093;-75
2022/01/30 02:31:56;;;;;;;11.82;3.22;;;;;;;6.50;85.56;100951.63;5059284;28;20029;-76
2022/01/30 02:34:29;;;;;;;12.20;3.58;;;;;;;6.53;85.32;100960.25;5059911;28;20062;-75
2022/01/30 02:36:55;;;;;;;16.27;3.10;;;;;;;6.53;85.46;100956.75;5059737;28;20047;-75
2022/01/30 02:39:21;;;;;;;14.25;3.35;;;;;;;6.53;85.50;100954.94;5072041;28;20032;-75
2022/01/30 02:41:47;;;;;;;16.30;2.88;;;;;;;6.52;85.48;100961.22;5077029;28;20036;-76
2022/01/30 02:44:20;;;;;;;12.35;2.92;;;;;;;6.53;85.62;100959.41;5075294;28;20289;-75
2022/01/30 02:46:48;;;;;;;11.18;3.13;;;;;;;6.49;85.67;100956.06;5059716;28;20669;-75
2022/01/30 02:51:50;;;;;;;11.82;2.90;;;;;;;6.46;85.40;100948.28;5075895;28;20039;-75
2022/01/30 02:54:16;;;;;;;12.07;2.97;;;;;;;6.49;85.08;100964.03;5059297;28;20032;-75
2022/01/30 02:56:41;;;;;;;13.48;3.08;;;;;;;6.48;85.31;100961.47;5058339;28;20412;-75
2022/01/30 02:59:07;;;;;;;15.45;3.28;;;;;;;6.45;85.37;100965.16;5065986;28;20041;-75
2022/01/30 03:01:32;;;;;;;13.52;3.15;;;;;;;6.45;85.54;100974.94;5073923;28;20055;-75
2022/01/30 03:04:01;;;;;;;18.17;3.70;;;;;;;6.42;85.26;100970.66;5059843;28;20037;-75
2022/01/30 03:06:27;;;;;;;13.52;3.20;;;;;;;6.35;84.96;100979.91;5057943;28;20036;-75
2022/01/30 03:08:53;;;;;;;12.25;3.45;;;;;;;6.31;85.16;100986.34;5065880;28;20569;-75
2022/01/30 03:11:19;;;;;;;10.45;2.58;;;;;;;6.28;85.12;100982.06;5057047;28;20051;-75
2022/01/30 03:13:45;;;;;;;12.30;2.78;;;;;;;6.24;85.44;100993.78;5057922;28;20117;-75
2022/01/30 03:16:10;;;;;;;13.73;3.28;;;;;;;6.13;85.19;100984.66;5058320;28;20370;-75
2022/01/30 03:18:36;;;;;;;13.95;3.47;;;;;;;6.17;85.74;100994.22;5066507;28;20025;-75
2022/01/30 03:21:02;;;;;;;13.02;3.13;;;;;;;6.16;86.09;100989.84;5058097;28;20066;-75
2022/01/30 03:23:29;;;;;;;11.73;2.80;;;;;;;6.11;85.20;100994.53;5065477;28;20078;-75
2022/01/30 03:25:58;;;;;;;13.85;3.17;;;;;;;6.10;85.01;100988.34;5066317;28;20036;-75
2022/01/30 03:28:23;;;;;;;;;;;;;;;6.16;85.60;100997.81;5060853;28;20032;-75
2022/01/30 03:30:53;;;;;;;13.57;2.78;;;;;;;6.11;85.30;100998.03;5066019;28;19995;-75
2022/01/30 03:33:19;;;;;;;11.02;2.83;;;;;;;6.08;85.59;101000.00;5064819;28;20901;-75
2022/01/30 03:35:46;;;;;;;10.23;2.83;;;;;;;6.06;85.25;101001.88;5075545;28;20063;-75
2022/01/30 03:38:14;;;;;;;11.60;2.95;;;;;;;6.03;85.88;101004.69;5058622;28;20052;-75
2022/01/30 03:40:39;;;;;;;11.35;2.85;;;;;;;6.03;85.59;101002.03;5057973;28;20032;-75
2022/01/30 03:43:05;;;;;;;12.10;2.88;;;;;;;5.99;85.25;101011.97;5066352;28;20161;-75
2022/01/30 03:45:30;;;;;;;17.27;3.40;;;;;;;6.01;86.03;101012.75;5065442;28;20104;-75
2022/01/30 03:47:56;;;;;;;12.43;2.95;;;;;;;5.99;85.48;101006.66;5065610;28;20172;-76
2022/01/30 03:50:22;;;;;;;14.35;2.72;;;;;;;6.02;85.42;101018.91;5065102;28;20103;-75
2022/01/30 03:52:48;;;;;;;11.43;2.67;;;;;;;5.99;86.12;101015.50;5057267;28;20028;-75
2022/01/30 03:55:13;;;;;;;13.48;2.85;;;;;;;6.04;85.25;101017.03;5074371;28;20097;-76
2022/01/30 03:57:39;;;;;;;10.32;2.67;;;;;;;6.06;85.61;101021.31;5056962;28;20031;-76
2022/01/30 04:00:05;;;;;;;12.93;2.72;;;;;;;6.08;85.28;101016.78;5057353;28;20462;-75
2022/01/30 04:02:31;;;;;;;14.68;2.83;;;;;;;6.07;85.24;101015.06;5056502;28;20040;-75
2022/01/30 04:04:56;;;;;;;13.43;3.05;;;;;;;6.07;85.29;101020.38;5065064;28;20191;-75
2022/01/30 04:07:22;;;;;;;14.57;2.90;;;;;;;6.04;85.74;101017.03;5064844;28;20032;-76
2022/01/30 04:09:47;;;;;;;12.85;2.90;;;;;;;6.04;85.33;101019.69;5072637;28;20064;-75
2022/01/30 04:12:14;;;;;;;10.02;2.70;;;;;;;6.03;85.48;101021.50;5058617;28;20024;-76
2022/01/30 04:14:39;;;;;;;13.77;3.00;;;;;;;5.98;84.83;101027.06;5064061;28;20031;-75
2022/01/30 04:17:08;;;;;;;11.75;3.03;;;;;;;6.02;85.70;101034.84;5055758;28;20031;-75
2022/01/30 04:19:33;;;;;;;10.48;2.40;;;;;;;6.03;85.13;101033.91;5057521;28;20762;-75
2022/01/30 04:21:59;;;;;;;15.52;2.88;;;;;;;6.00;85.56;101037.59;5057004;28;20032;-75
2022/01/30 04:24:24;;;;;;;9.27;3.15;;;;;;;6.01;85.25;101041.94;5057235;28;20047;-75
2022/01/30 04:26:50;;;;;;;17.73;3.13;;;;;;;6.04;85.28;101044.44;5064641;28;20028;-75
2022/01/30 04:29:15;;;;;;;9.98;2.72;;;;;;;6.04;85.24;101041.78;5064366;28;20074;-75
2022/01/30 04:31:42;;;;;;;11.55;2.42;;;;;;;6.02;85.09;101053.44;5064763;28;20119;-75
2022/01/30 04:34:08;;;;;;;11.98;2.97;;;;;;;6.04;84.82;101046.25;5056951;28;20044;-75
2022/01/30 04:36:43;;;;;;;12.35;3.03;;;;;;;6.04;84.92;101049.75;5055714;28;20028;-75
2022/01/30 04:52:50;;;;;;;14.15;2.75;;;;;;;6.07;84.73;101051.38;5075205;28;20059;-75
2022/01/30 05:00:27;;;;;;;12.15;2.70;;;;;;;6.01;84.82;101047.25;5073797;28;20032;-75
2022/01/30 05:03:03;;;;;;;11.27;2.22;;;;;;;5.99;84.69;101041.19;5058916;28;20484;-75
2022/01/30 05:08:07;;;;;;;13.57;2.90;;;;;;;6.26;85.29;101045.03;5074092;28;20044;-75
2022/01/30 05:10:32;;;;;;;11.68;2.63;;;;;;;6.25;85.55;101061.91;5074102;28;20040;-75
2022/01/30 05:13:00;;;;;;;11.38;2.67;;;;;;;6.28;85.81;101053.75;5057151;28;20119;-76
2022/01/30 05:15:28;;;;;;;12.23;2.83;;;;;;;6.20;85.30;101055.97;5057401;28;20040;-75
2022/01/30 05:17:54;;;;;;;13.45;2.78;;;;;;;6.16;85.12;101057.09;5056835;28;20058;-75
2022/01/30 05:20:19;;;;;;;10.52;2.40;;;;;;;6.22;85.22;101058.56;5057089;28;20032;-75
2022/01/30 05:22:45;;;;;;;13.68;2.90;;;;;;;6.18;85.82;101067.63;5067139;28;20028;-75
2022/01/30 05:25:11;;;;;;;13.25;2.90;;;;;;;6.16;85.57;101069.50;5061691;28;20036;-75
2022/01/30 05:27:37;;;;;;;13.20;2.75;;;;;;;6.07;85.09;101075.28;5060323;28;20033;-75
2022/01/30 05:30:04;;;;;;;10.68;2.92;;;;;;;6.16;85.77;101075.69;5060889;28;20062;-75
2022/01/30 05:32:29;;;;;;;14.55;2.55;;;;;;;6.06;85.53;101079.72;5075791;28;20036;-75
2022/01/30 05:34:56;;;;;;;12.07;2.95;;;;;;;5.99;86.08;101078.34;5058156;28;20128;-75
2022/01/30 05:37:22;;;;;;;15.57;3.35;;;;;;;5.93;85.70;101084.84;5060218;28;20066;-75
2022/01/30 05:39:48;;;;;;;13.38;3.72;;;;;;;5.96;85.92;101081.16;5060181;28;20036;-75
2022/01/30 05:42:16;;;;;;;16.65;2.83;;;;;;;5.94;85.52;101088.34;5060609;28;20032;-75
2022/01/30 05:47:15;;;;;;;10.45;3.03;;;;;;;6.03;85.95;101079.03;5076248;28;20032;-75
2022/01/30 05:49:45;;;;;;;11.63;2.40;;;;;;;6.02;85.73;101082.63;5060558;28;20043;-75
2022/01/30 05:52:11;;;;;;;13.15;2.67;;;;;;;5.94;85.39;101091.00;5056733;28;20100;-75
2022/01/30 05:54:36;;;;;;;12.77;2.63;;;;;;;5.88;84.91;101100.13;5060555;28;20040;-75
2022/01/30 05:57:02;;;;;;;13.00;2.60;;;;;;;5.84;85.25;101100.34;5076039;28;20119;-75
2022/01/30 05:59:27;;;;;;;19.20;3.10;;;;;;;5.87;85.62;101105.50;5058642;28;20036;-75
2022/01/30 06:01:52;;;;;;;14.77;2.55;;;;;;;5.89;85.32;101112.47;5059878;28;20099;-75
2022/01/30 06:04:18;;;;;;;12.25;2.65;;;;;;;5.91;85.28;101112.41;5067422;28;20047;-76
2022/01/30 06:06:50;;;;;;;10.02;2.45;;;;;;;5.95;86.21;101117.47;5058478;28;20063;-75
2022/01/30 06:11:44;;;;;;;10.25;2.55;;;;;;;5.94;86.08;101121.06;5075103;28;20036;-75
2022/01/30 06:14:09;;;;;;;13.57;2.50;;;;;;;5.92;85.83;101117.63;5060065;28;21058;-76
2022/01/30 06:16:35;;;;;;;10.60;2.63;;;;;;;5.93;85.85;101110.53;5066902;28;20068;-75
2022/01/30 06:19:01;;;;;;;15.48;3.28;;;;;;;5.90;85.98;101118.66;5059366;28;20052;-75
2022/01/30 06:21:27;;;;;;;15.60;2.85;;;;;;;5.87;85.91;101114.31;5060094;28;20035;-75
2022/01/30 06:23:56;;;;;;;12.38;2.28;;;;;;;5.84;85.81;101110.97;5076682;28;20021;-75
2022/01/30 06:26:21;;;;;;;13.02;2.90;;;;;;;5.84;86.62;101113.63;5059082;28;20028;-75
2022/01/30 06:28:47;;;;;;;11.82;2.40;;;;;;;5.90;86.77;101121.31;5058956;28;20043;-76
2022/01/30 06:31:12;;;;;;;16.67;3.20;;;;;;;5.81;86.63;101113.78;5067726;28;20091;-76
2022/01/30 06:33:40;;;;;;;10.52;2.45;;;;;;;5.83;86.25;101122.53;5074300;28;20036;-76
2022/01/30 06:36:06;;;;;;;11.10;3.00;;;;;;;5.77;85.96;101123.72;5075994;28;20118;-76
2022/01/30 06:38:31;;;;;;;13.90;2.75;;;;;;;5.66;85.44;101116.25;5075885;28;20060;-75
2022/01/30 06:40:59;;;;;;;11.63;2.80;;;;;;;5.62;85.09;101111.19;5074954;28;20064;-75
2022/01/30 06:43:25;;;;;;;12.63;3.03;;;;;;;5.47;85.49;101125.25;5059918;28;20024;-75
2022/01/30 06:45:50;;;;;;;11.43;2.72;;;;;;;5.31;85.55;101118.06;5067082;28;20059;-76
2022/01/30 06:48:18;;;;;;;14.77;2.80;;;;;;;5.33;85.46;101124.13;5059094;28;20047;-75
2022/01/30 06:50:44;;;;;;;10.75;2.60;;;;;;;5.44;86.07;101117.44;5057764;28;20077;-76
2022/01/30 06:53:09;;;;;;;11.45;2.90;;;;;;;5.47;85.84;101120.78;5057097;28;20060;-76
2022/01/30 06:55:35;;;;;;;10.35;2.38;;;;;;;5.45;85.85;101130.63;5057440;28;20086;-75
2022/01/30 06:58:00;;;;;;;12.57;2.50;;;;;;;5.51;85.81;101138.28;5057495;28;20036;-76
2022/01/30 07:00:25;;;;;;;11.20;2.70;;;;;;;5.54;85.29;101135.47;5058054;28;20028;-75
2022/01/30 07:02:51;;;;;;;12.93;2.53;;;;;;;5.55;85.74;101138.97;5057231;28;20057;-76
2022/01/30 07:05:16;;;;;;;11.88;2.40;;;;;;;5.58;85.99;101141.47;5064185;28;20089;-76
2022/01/30 07:07:42;;;;;;;10.93;2.85;;;;;;;5.56;86.01;101144.19;5055364;28;20076;-75
2022/01/30 07:10:08;;;;;;;11.15;2.35;;;;;;;5.59;85.70;101151.16;5051283;28;20082;-75
2022/01/30 07:12:33;;;;;;;12.93;2.80;;;;;;;5.52;85.36;101150.59;5037633;28;20092;-75
2022/01/30 07:14:59;;;;;;;11.07;3.00;;;;;;;5.51;85.91;101156.84;5045287;28;20041;-76
2022/01/30 07:17:24;;;;;;;11.90;2.90;;;;;;;5.59;85.03;101161.75;5044366;28;20033;-75
2022/01/30 07:19:50;;;;;;;12.50;2.67;;;;;;;5.54;85.18;101167.28;5039257;28;20056;-75
2022/01/30 07:22:15;;;;;;;13.40;2.95;;;;;;;5.50;85.24;101168.38;5061323;28;20029;-75
2022/01/30 07:24:40;;;;;;;11.95;2.58;;;;;;;5.56;85.23;101169.88;5044545;28;20063;-75
2022/01/30 07:27:06;;;;;;;9.20;2.42;;;;;;;5.53;85.34;101170.03;5043968;28;20058;-76
2022/01/30 07:29:31;;;;;;;13.25;2.60;;;;;;;5.58;84.82;101168.88;5039431;28;20099;-75
2022/01/30 07:31:57;;;;;;;7.18;2.38;;;;;;;5.57;84.86;101171.59;5042695;28;20115;-75
2022/01/30 07:34:22;;;;;;;12.95;2.70;;;;;;;5.57;84.99;101167.16;5043740;28;20040;-75
2022/01/30 07:36:48;;;;;;;10.90;2.75;;;;;;;5.62;84.92;101172.22;5051624;28;20024;-76
2022/01/30 07:39:16;;;;;;;8.10;2.83;;;;;;;5.55;85.13;101179.63;5059455;28;20025;-76
2022/01/30 07:41:46;;;;;;;13.00;3.30;;;;;;;5.52;84.56;101182.44;5036343;28;20036;-76
2022/01/30 07:44:11;;;;;;;11.95;2.42;;;;;;;5.53;84.85;101183.28;5043115;28;20033;-76
2022/01/30 07:46:37;;;;;;;11.82;2.47;;;;;;;5.54;84.76;101185.88;5051160;28;20039;-75
2022/01/30 07:49:03;;;;;;;11.80;2.60;;;;;;;5.51;84.69;101193.97;5044793;28;20519;-75
2022/01/30 07:51:28;;;;;;;9.85;2.55;;;;;;;5.47;84.78;101194.19;5053552;28;20086;-76
2022/01/30 07:53:56;;;;;;;7.95;2.65;;;;;;;5.48;84.69;101199.44;5056244;28;21005;-75
2022/01/30 07:56:23;;;;;;;12.40;2.83;;;;;;;5.55;84.92;101197.34;5037103;28;20075;-75
2022/01/30 07:58:49;;;;;;;9.85;2.60;;;;;;;5.59;84.81;101191.81;5039313;28;20093;-75
2022/01/30 08:01:14;;;;;;;10.27;2.60;;;;;;;5.61;84.76;101197.91;5042976;28;20052;-75
2022/01/30 08:03:40;;;;;;;13.90;2.95;;;;;;;5.61;84.75;101194.38;5042546;28;20364;-75
2022/01/30 08:06:05;;;;;;;12.43;2.72;;;;;;;5.72;84.46;101202.69;5036530;28;20028;-76
2022/01/30 08:08:31;;;;;;;14.70;2.92;;;;;;;5.73;84.75;101201.75;5040367;28;20052;-75
2022/01/30 08:10:57;;;;;;;13.60;3.00;;;;;;;5.64;84.98;101208.34;5055745;28;20064;-75
2022/01/30 08:13:22;;;;;;;14.45;2.97;;;;;;;5.63;84.86;101211.94;5055634;28;20038;-75
2022/01/30 08:15:50;;;;;;;15.52;2.72;;;;;;;5.55;84.64;101222.06;5061357;28;20028;-75
2022/01/30 08:18:18;;;;;;;10.68;3.13;;;;;;;5.48;84.73;101212.69;5056967;28;20036;-76
2022/01/30 08:20:47;;;;;;;10.18;2.35;;;;;;;5.45;84.61;101212.84;5056803;28;20031;-76
2022/01/30 08:23:15;;;;;;;11.53;3.07;;;;;;;5.44;85.30;101212.91;5057236;28;20050;-76
2022/01/30 08:25:43;;;;;;;13.17;3.43;;;;;;;5.44;84.94;101202.31;5058008;28;20047;-76
2022/01/30 08:28:08;;;;;;;10.47;2.70;;;;;;;5.53;85.29;101216.00;5056229;28;20043;-75
2022/01/30 08:30:34;;;;;;;14.48;2.90;;;;;;;5.61;85.70;101212.94;5055442;28;20282;-75
2022/01/30 08:33:00;;;;;;;16.02;3.25;;;;;;;5.61;85.58;101213.81;5054090;28;20043;-76
2022/01/30 08:35:26;;;;;;;8.38;2.25;;;;;;;5.67;85.60;101217.97;5057087;28;20032;-76
2022/01/30 08:37:52;;;;;;;11.15;2.75;;;;;;;5.73;85.26;101223.00;5053938;28;20039;-76
2022/01/30 08:40:19;;;;;;;11.20;3.22;;;;;;;5.74;85.32;101216.75;5055582;28;20031;-75
2022/01/30 08:42:46;;;;;;;9.52;2.70;;;;;;;5.78;85.71;101222.75;5053422;28;20037;-75
2022/01/30 08:45:13;;;;;;;11.93;2.40;;;;;;;5.71;85.31;101222.22;5056443;28;20055;-76
2022/01/30 08:47:39;;;;;;;12.88;2.70;;;;;;;5.65;84.92;101226.00;5056761;28;20104;-75
2022/01/30 08:50:08;;;;;;;16.60;3.17;;;;;;;5.63;85.60;101230.50;5056048;28;20567;-75
2022/01/30 08:52:33;;;;;;;14.02;3.15;;;;;;;5.59;85.74;101228.94;5054270;28;20040;-76
2022/01/30 08:55:01;;;;;;;19.35;3.28;;;;;;;5.52;85.50;101230.19;5056900;28;20061;-75
2022/01/30 08:57:26;;;;;;;11.50;2.80;;;;;;;5.52;85.88;101229.31;5072627;28;20057;-75
2022/01/30 08:59:52;;;;;;;10.35;2.35;;;;;;;5.57;85.90;101228.16;5056058;28;20095;-76
2022/01/30 09:02:19;;;;;;;10.57;2.58;;;;;;;5.58;86.05;101236.97;5055518;28;20036;-76
2022/01/30 09:04:44;;;;;;;12.70;2.60;;;;;;;5.66;85.60;101233.03;5061045;28;20037;-76
2022/01/30 09:07:09;;;;;;;9.60;2.80;;;;;;;5.70;86.15;101241.72;5060192;28;20040;-75
2022/01/30 09:09:35;;;;;;;15.55;2.80;;;;;;;5.87;86.33;101240.88;5060243;28;20049;-76
2022/01/30 09:12:02;;;;;;;12.20;3.10;;;;;;;5.85;86.04;101238.31;5055117;28;20057;-76
2022/01/30 09:14:29;;;;;;;10.45;2.65;;;;;;;5.85;85.91;101233.00;5072024;28;20040;-76
2022/01/30 09:16:55;;;;;;;10.77;2.45;;;;;;;5.83;85.43;101221.59;5071119;28;20043;-75
2022/01/30 09:19:23;;;;;;;11.13;2.97;;;;;;;5.83;86.04;101223.38;5060062;28;20036;-75
2022/01/30 09:21:48;;;;;;;13.98;2.75;;;;;;;5.89;85.98;101229.28;5056376;28;20032;-76
2022/01/30 09:24:14;;;;;;;15.68;3.45;;;;;;;5.90;85.86;101233.66;5053291;28;20098;-76
2022/01/30 09:26:40;;;;;;;8.82;2.72;;;;;;;5.82;86.00;101233.16;5053600;28;20044;-75
2022/01/30 09:29:06;;;;;;;10.35;2.75;;;;;;;5.74;86.15;101245.09;5071680;28;20051;-75
2022/01/30 09:31:31;;;;;;;16.05;2.90;;;;;;;5.76;86.40;101238.75;5053458;28;20040;-76
2022/01/30 09:33:56;;;;;;;10.65;2.60;;;;;;;5.92;86.61;101242.41;5069737;28;20036;-76
2022/01/30 09:36:24;;;;;;;11.45;2.60;;;;;;;5.85;85.90;101254.22;5052983;28;20056;-76
2022/01/30 09:38:50;;;;;;;11.33;2.70;;;;;;;5.80;86.17;101250.09;5055485;28;20028;-76
2022/01/30 09:41:16;;;;;;;12.68;3.08;;;;;;;5.82;86.67;101264.13;5060857;28;20051;-76
2022/01/30 09:43:44;;;;;;;14.75;2.50;;;;;;;5.85;86.36;101267.50;5054035;28;20107;-76
2022/01/30 09:46:11;;;;;;;11.90;2.80;;;;;;;5.87;86.54;101273.59;5054210;28;20039;-76
2022/01/30 09:48:38;;;;;;;13.25;2.80;;;;;;;5.88;86.30;101274.44;5053223;28;20033;-75
2022/01/30 09:51:07;;;;;;;10.68;2.53;;;;;;;5.91;86.24;101269.03;5052379;28;20032;-76
2022/01/30 09:53:34;;;;;;;16.35;2.80;;;;;;;5.87;85.75;101278.03;5085358;28;20104;-75
2022/01/30 09:56:03;;;;;;;12.13;2.70;;;;;;;5.77;86.44;101269.69;5053363;28;20064;-75
2022/01/30 09:58:30;;;;;;;13.27;3.35;;;;;;;5.76;86.02;101273.25;5055798;28;20032;-75
2022/01/30 10:00:55;;;;;;;12.95;2.63;;;;;;;5.81;86.38;101265.06;5061392;28;20051;-75
2022/01/30 10:03:26;;;;;;;11.70;2.70;;;;;;;5.85;86.17;101274.59;5054928;28;20032;-76
2022/01/30 10:06:15;;;;;;;13.23;2.88;;;;;;;5.87;86.04;101275.38;5054345;28;20039;-76
2022/01/30 10:08:46;;;;;;;;;;;;;;;5.88;86.67;101272.66;5058802;28;20050;-76
2022/01/30 10:11:34;;;;;;;12.98;2.88;;;;;;;5.86;86.34;101277.19;5064554;28;19916;-75
2022/01/30 10:14:06;;;;;;;15.00;2.90;;;;;;;5.82;85.73;101275.63;5078298;28;20036;-75
2022/01/30 10:16:36;;;;;;;12.50;2.90;;;;;;;5.85;86.15;101271.94;5073906;28;20082;-75
2022/01/30 10:19:23;;;;;;;11.85;2.78;;;;;;;5.91;86.09;101274.34;5057599;28;20028;-75
2022/01/30 10:22:06;;;;;;;16.48;3.50;;;;;;;5.90;86.09;101281.44;5058615;28;20024;-76
2022/01/30 10:24:40;;;;;;;11.88;3.20;;;;;;;5.93;86.35;101272.47;5064809;28;20037;-76
2022/01/30 10:27:24;;;;;;;12.27;3.05;;;;;;;5.96;86.59;101262.53;5057486;28;20069;-75
2022/01/30 10:29:57;;;;;;;9.45;2.72;;;;;;;5.97;86.56;101272.22;5056588;28;20041;-75
2022/01/30 10:32:23;;;;;;;12.20;2.95;;;;;;;5.96;86.13;101278.47;5058416;28;20033;-76
2022/01/30 10:34:56;;;;;;;12.75;3.17;;;;;;;5.92;85.67;101279.56;5064012;28;20038;-76
2022/01/30 10:37:24;;;;;;;13.25;3.22;;;;;;;5.96;85.82;101277.63;5055248;28;20036;-76
2022/01/30 10:40:04;;;;;;;13.18;3.58;;;;;;;5.97;86.25;101285.50;5057871;28;20055;-75
2022/01/30 10:42:30;;;;;;;15.15;3.25;;;;;;;6.02;86.24;101281.75;5073453;28;20028;-75
2022/01/30 10:44:56;;;;;;;13.65;3.25;;;;;;;5.99;86.08;101283.63;5059481;28;20043;-75
2022/01/30 10:47:21;;;;;;;11.77;3.35;;;;;;;5.99;86.24;101282.78;5064407;28;20032;-75
2022/01/30 10:49:47;;;;;;;13.32;3.25;;;;;;;5.99;85.94;101278.31;5056251;28;20063;-75
2022/01/30 10:52:13;;;;;;;10.63;2.88;;;;;;;5.98;86.25;101268.63;5057762;28;20032;-75
2022/01/30 10:54:40;;;;;;;11.45;3.35;;;;;;;6.01;86.94;101288.88;5055581;28;20090;-75
2022/01/30 10:57:15;;;;;;;14.30;3.17;;;;;;;5.99;86.00;101270.34;5055982;28;20028;-75
2022/01/30 10:59:46;;;;;;;14.07;3.25;;;;;;;5.97;86.00;101266.06;5056328;28;20048;-75
2022/01/30 11:02:12;;;;;;;10.63;2.95;;;;;;;5.99;85.99;101280.97;5059586;28;20166;-75
2022/01/30 11:04:38;;;;;;;12.07;3.10;;;;;;;6.00;86.09;101271.22;5062324;28;20036;-75
2022/01/30 11:07:04;;;;;;;18.17;2.90;;;;;;;5.98;85.89;101265.97;5055669;28;20070;-75
2022/01/30 11:09:51;;;;;;;12.13;3.00;;;;;;;5.96;85.73;101275.81;5054762;28;20062;-76
2022/01/30 11:12:18;;;;;;;15.60;3.00;;;;;;;5.94;85.42;101258.25;5075086;28;20047;-75
2022/01/30 11:17:15;;;;;;;11.93;2.80;;;;;;;6.06;85.14;101256.78;5074152;28;20070;-75
2022/01/30 11:19:42;;;;;;;15.60;3.30;;;;;;;6.17;85.13;101249.16;5053266;28;20044;-75
2022/01/30 11:22:15;;;;;;;12.95;2.70;;;;;;;6.22;85.00;101253.28;5054423;28;20310;-75
2022/01/30 11:24:46;;;;;;;11.07;2.55;;;;;;;6.25;85.13;101239.84;5057354;28;20097;-75
2022/01/30 11:27:15;;;;;;;13.07;2.92;;;;;;;6.26;84.65;101236.25;5092578;28;20063;-75
2022/01/30 11:29:40;;;;;;;;;;;;;;;6.29;84.80;101228.13;5073793;28;20127;-75
2022/01/30 11:32:07;;;;;;;16.17;2.75;;;;;;;6.32;85.20;101232.41;5063459;28;20806;-75
2022/01/30 11:34:36;;;;;;;10.35;2.58;;;;;;;6.33;84.83;101218.19;5056201;28;20036;-75
2022/01/30 11:37:02;;;;;;;13.82;2.83;;;;;;;6.35;85.09;101218.97;5055618;28;20028;-76
2022/01/30 11:39:28;;;;;;;13.43;2.50;;;;;;;6.38;85.08;101217.97;5056143;28;20036;-75
2022/01/30 11:42:09;;;;;;;15.60;2.97;;;;;;;6.33;84.07;101215.53;5055786;28;20064;-75
2022/01/30 11:44:35;;;;;;;14.10;2.90;;;;;;;6.28;83.77;101209.63;5072316;28;20039;-75
2022/01/30 11:47:03;;;;;;;14.73;2.88;;;;;;;6.26;83.54;101204.38;5056600;28;20131;-75
2022/01/30 11:49:44;;;;;;;14.95;2.70;;;;;;;6.27;83.02;101205.25;5072469;28;20024;-75
2022/01/30 11:52:12;;;;;;;14.38;2.83;;;;;;;6.28;82.99;101209.63;5053920;28;20047;-75
2022/01/30 11:54:47;;;;;;;16.60;3.65;;;;;;;6.31;83.16;101196.19;5053530;28;20067;-75
2022/01/30 11:57:32;;;;;;;16.33;3.05;;;;;;;6.37;83.72;101198.50;5060314;28;20032;-74
2022/01/30 12:00:00;;;;;;;13.30;2.95;;;;;;;6.39;83.61;101195.78;5070104;28;20197;-75
2022/01/30 12:02:34;;;;;;;11.55;3.03;;;;;;;6.34;82.15;101192.50;5072890;28;20036;-75
2022/01/30 12:05:07;;;;;;;18.17;3.40;;;;;;;6.31;82.28;101183.75;5053444;28;20060;-75
2022/01/30 12:07:42;;;;;;;11.88;2.70;;;;;;;6.35;82.64;101179.13;5056776;28;20044;-75
2022/01/30 12:10:29;;;;;;;16.05;2.55;;;;;;;6.36;83.02;101172.03;5052237;28;20056;-75
2022/01/30 12:13:06;;;;;;;10.85;2.85;;;;;;;6.35;82.85;101162.34;5071934;28;20031;-76
2022/01/30 12:15:45;;;;;;;14.13;3.10;;;;;;;6.34;82.76;101169.44;5055654;28;20150;-75
2022/01/30 12:18:14;;;;;;;13.80;3.05;;;;;;;6.31;82.17;101165.16;5056299;28;20036;-76
2022/01/30 12:20:59;;;;;;;11.38;3.00;;;;;;;6.29;81.02;101166.19;5073286;28;20055;-76
2022/01/30 12:23:41;;;;;;;14.05;2.67;;;;;;;6.30;80.65;101162.59;5060956;28;20036;-75
2022/01/30 12:26:14;;;;;;;21.58;2.90;;;;;;;6.31;80.01;101151.88;5062641;28;20025;-75